Russell Township, Ohio
Current Conditions -  °F | °C
As of 12:45 PM on Sunday 21 Dec 2014 (Local Time) from KCGF Reporting Station
Haze Haze  
Wind Chill: 28°   Ceiling: 1200
Heat Index: 34°   Visibility: 6mi
Dew Point: 23°   Wind: 7mph
Humidity: 65%   Direction: 190°S
Pressure: 30.29"   Gusts: NA
Location:  41.4688°N, 81.3252°W
Report Text: KCGF 211745Z 19006KT 6SM BR BKN012 OVC024 01/M05 A3029
Loading
Personal Weather Stations






























Interactive Weather Map New forecast layout! Learn more

10-Day Weather Forecast

Advertisements
Track Severe Weather on mobile